Time;durP1;ratioP1;P1;durP2;ratioP2;P2;SDS_P1;SDS_P2;PMS_P1;PMS_P2;Temp;Humidity;BMP_temperature;BMP_pressure;BME280_temperature;BME280_humidity;BME280_pressure;Samples;Min_cycle;Max_cycle;Signal;HPM_P1;HPM_P2
2023/12/10 00:00:00;;;;;;;19.30;3.90;;;;;;;;;;460767;28;1035;-71
2023/12/10 00:00:16;;;;;;;16.80;3.58;;;;;;;;;;460704;28;954;-71
2023/12/10 00:00:31;;;;;;;14.95;3.60;;;;;;;;;;459400;28;1298;-71
2023/12/10 00:00:47;;;;;;;15.43;3.93;;;;;;;;;;457976;28;1025;-71
2023/12/10 00:01:02;;;;;;;15.45;4.00;;;;;;;;;;459889;28;935;-71
2023/12/10 00:01:18;;;;;;;17.67;4.20;;;;;;;;;;458714;28;1106;-71
2023/12/10 00:01:33;;;;;;;19.27;4.35;;;;;;;;;;459479;28;1432;-71
2023/12/10 00:01:48;;;;;;;19.37;4.10;;;;;;;;;;458493;29;1508;-70
2023/12/10 00:02:04;;;;;;;18.35;3.92;;;;;;;;;;458379;29;967;-71
2023/12/10 00:02:19;;;;;;;19.00;4.03;;;;;;;;;;459186;28;903;-71
2023/12/10 00:02:35;;;;;;;17.07;4.00;;;;;;;;;;459724;28;1015;-70
2023/12/10 00:02:50;;;;;;;14.85;3.75;;;;;;;;;;462112;28;1291;-71
2023/12/10 00:03:06;;;;;;;18.30;3.80;;;;;;;;;;461890;28;1115;-71
2023/12/10 00:03:21;;;;;;;19.42;4.03;;;;;;;;;;460257;28;1154;-71
2023/12/10 00:03:36;;;;;;;17.10;4.00;;;;;;;;;;460636;28;1254;-71
2023/12/10 00:03:52;;;;;;;15.77;3.95;;;;;;;;;;459970;28;1129;-71
2023/12/10 00:04:07;;;;;;;16.77;4.27;;;;;;;;;;458451;29;1312;-71
2023/12/10 00:04:23;;;;;;;17.03;4.20;;;;;;;;;;458529;29;934;-71
2023/12/10 00:04:39;;;;;;;17.33;4.20;;;;;;;;;;459747;28;1198;-71
2023/12/10 00:04:54;;;;;;;17.42;4.07;;;;;;;;;;456582;29;1124;-71
2023/12/10 00:05:09;;;;;;;15.13;3.67;;;;;;;;;;456825;29;923;-71
2023/12/10 00:05:25;;;;;;;16.37;3.80;;;;;;;;;;459017;28;1340;-71
2023/12/10 00:05:40;;;;;;;18.45;3.92;;;;;;;;;;459783;28;1071;-71
2023/12/10 00:05:55;;;;;;;19.40;3.90;;;;;;;;;;459742;28;1304;-71
2023/12/10 00:06:11;;;;;;;18.40;3.97;;;;;;;;;;462649;28;974;-71
2023/12/10 00:06:26;;;;;;;17.45;4.05;;;;;;;;;;462505;28;924;-70
2023/12/10 00:06:41;;;;;;;18.47;4.30;;;;;;;;;;462092;28;1499;-71
2023/12/10 00:06:57;;;;;;;19.05;4.63;;;;;;;;;;460743;28;1131;-71
2023/12/10 00:07:12;;;;;;;18.00;4.50;;;;;;;;;;461278;28;1032;-71
2023/12/10 00:07:27;;;;;;;17.37;4.30;;;;;;;;;;461164;28;1118;-70
2023/12/10 00:07:43;;;;;;;16.90;4.10;;;;;;;;;;462103;28;1327;-71
2023/12/10 00:07:58;;;;;;;17.37;3.93;;;;;;;;;;460128;28;1217;-70
2023/12/10 00:08:14;;;;;;;18.63;4.15;;;;;;;;;;459500;28;1161;-71
2023/12/10 00:08:29;;;;;;;19.77;4.30;;;;;;;;;;457123;29;1190;-71
2023/12/10 00:08:44;;;;;;;18.57;4.00;;;;;;;;;;458104;28;943;-70
2023/12/10 00:09:00;;;;;;;16.20;3.67;;;;;;;;;;458883;28;1185;-70
2023/12/10 00:09:15;;;;;;;12.77;3.17;;;;;;;;;;459169;28;1137;-71
2023/12/10 00:09:30;;;;;;;12.87;3.23;;;;;;;;;;458940;28;979;-70
2023/12/10 00:09:46;;;;;;;16.73;3.92;;;;;;;;;;458947;28;1105;-71
2023/12/10 00:10:02;;;;;;;16.20;4.10;;;;;;;;;;457618;29;1162;-71
2023/12/10 00:10:17;;;;;;;19.27;4.20;;;;;;;;;;457108;28;1064;-71
2023/12/10 00:10:32;;;;;;;20.00;4.20;;;;;;;;;;459072;28;1029;-71
2023/12/10 00:10:48;;;;;;;14.07;3.72;;;;;;;;;;459644;28;859;-71
2023/12/10 00:11:04;;;;;;;13.18;3.42;;;;;;;;;;459956;28;950;-71
2023/12/10 00:11:19;;;;;;;16.07;3.57;;;;;;;;;;461096;28;1076;-71
2023/12/10 00:11:35;;;;;;;17.80;4.00;;;;;;;;;;461923;28;1195;-71
2023/12/10 00:11:50;;;;;;;18.77;4.40;;;;;;;;;;464482;28;1275;-71
2023/12/10 00:12:06;;;;;;;21.80;4.53;;;;;;;;;;465632;28;915;-71
2023/12/10 00:12:22;;;;;;;20.13;4.25;;;;;;;;;;464934;28;1276;-71
2023/12/10 00:12:37;;;;;;;19.20;4.10;;;;;;;;;;462741;28;1128;-71
2023/12/10 00:12:53;;;;;;;19.40;4.03;;;;;;;;;;461051;28;1117;-71
2023/12/10 00:13:11;;;;;;;16.13;3.67;;;;;;;;;;461576;28;1308;-71
2023/12/10 00:13:26;;;;;;;15.90;3.50;;;;;;;;;;461870;28;1524;-71
2023/12/10 00:13:42;;;;;;;18.33;3.90;;;;;;;;;;460524;28;1377;-71
2023/12/10 00:13:57;;;;;;;18.00;4.23;;;;;;;;;;461069;28;1436;-71
2023/12/10 00:14:12;;;;;;;18.47;4.30;;;;;;;;;;460680;28;2030;-71
2023/12/10 00:14:28;;;;;;;19.37;4.13;;;;;;;;;;461113;28;1698;-71
2023/12/10 00:14:43;;;;;;;18.63;4.10;;;;;;;;;;463334;28;1382;-71
2023/12/10 00:14:59;;;;;;;17.67;3.83;;;;;;;;;;462159;28;1462;-70
2023/12/10 00:15:14;;;;;;;18.20;4.03;;;;;;;;;;461607;28;1335;-71
2023/12/10 00:15:30;;;;;;;17.48;4.40;;;;;;;;;;460918;28;1627;-71
2023/12/10 00:15:45;;;;;;;18.30;4.60;;;;;;;;;;462766;28;1350;-71
2023/12/10 00:16:00;;;;;;;22.47;4.93;;;;;;;;;;462953;28;1256;-71
2023/12/10 00:16:16;;;;;;;21.85;4.75;;;;;;;;;;461221;28;1344;-71
2023/12/10 00:16:31;;;;;;;17.53;3.97;;;;;;;;;;461159;28;1320;-71
2023/12/10 00:16:46;;;;;;;16.67;3.53;;;;;;;;;;460803;28;1686;-71
2023/12/10 00:17:02;;;;;;;15.10;3.53;;;;;;;;;;460649;28;1040;-71
2023/12/10 00:17:17;;;;;;;14.30;3.80;;;;;;;;;;459850;28;1414;-71
2023/12/10 00:17:32;;;;;;;17.63;4.13;;;;;;;;;;458748;28;1307;-71
2023/12/10 00:17:48;;;;;;;18.87;4.43;;;;;;;;;;459089;28;1276;-71
2023/12/10 00:18:05;;;;;;;18.13;4.70;;;;;;;;;;458502;28;1315;-71
2023/12/10 00:18:20;;;;;;;19.90;4.70;;;;;;;;;;458692;28;1976;-71
2023/12/10 00:18:36;;;;;;;20.17;4.57;;;;;;;;;;459716;28;1466;-71
2023/12/10 00:18:51;;;;;;;18.93;4.40;;;;;;;;;;461246;28;1359;-71
2023/12/10 00:19:06;;;;;;;20.50;4.50;;;;;;;;;;460003;28;1313;-71
2023/12/10 00:19:22;;;;;;;21.17;4.30;;;;;;;;;;459923;28;1321;-71
2023/12/10 00:19:37;;;;;;;17.93;3.90;;;;;;;;;;461982;28;1689;-71
2023/12/10 00:19:52;;;;;;;17.77;4.20;;;;;;;;;;459997;28;1487;-71
2023/12/10 00:20:08;;;;;;;18.00;4.40;;;;;;;;;;460466;28;1387;-71
2023/12/10 00:20:25;;;;;;;20.77;4.65;;;;;;;;;;460124;28;1681;-71
2023/12/10 00:20:40;;;;;;;21.70;4.70;;;;;;;;;;461426;28;1471;-71
2023/12/10 00:20:56;;;;;;;18.35;4.05;;;;;;;;;;460575;28;1417;-71
2023/12/10 00:21:14;;;;;;;18.53;4.00;;;;;;;;;;460679;28;1438;-70
2023/12/10 00:21:29;;;;;;;17.80;4.30;;;;;;;;;;460193;28;1504;-70
2023/12/10 00:21:46;;;;;;;17.42;4.22;;;;;;;;;;459900;28;1182;-71
2023/12/10 00:22:01;;;;;;;18.27;4.32;;;;;;;;;;459885;28;1393;-71
2023/12/10 00:22:16;;;;;;;21.30;5.00;;;;;;;;;;460869;28;1484;-71
2023/12/10 00:22:32;;;;;;;25.70;6.20;;;;;;;;;;459008;28;1457;-71
2023/12/10 00:22:47;;;;;;;22.27;5.83;;;;;;;;;;462767;28;1411;-71
2023/12/10 00:23:03;;;;;;;21.30;5.25;;;;;;;;;;462411;28;1409;-70
2023/12/10 00:23:18;;;;;;;23.97;5.70;;;;;;;;;;462393;28;1263;-71
2023/12/10 00:23:33;;;;;;;22.27;5.38;;;;;;;;;;462371;28;1389;-70
2023/12/10 00:23:49;;;;;;;22.00;4.90;;;;;;;;;;460548;28;1400;-71
2023/12/10 00:24:05;;;;;;;21.63;4.97;;;;;;;;;;461261;28;1462;-71
2023/12/10 00:24:22;;;;;;;20.65;5.15;;;;;;;;;;459948;28;1435;-71
2023/12/10 00:24:37;;;;;;;20.30;5.20;;;;;;;;;;460060;28;1372;-71
2023/12/10 00:24:52;;;;;;;19.77;4.75;;;;;;;;;;459230;28;1376;-71
2023/12/10 00:25:08;;;;;;;17.23;4.17;;;;;;;;;;458808;28;1409;-71
2023/12/10 00:25:26;;;;;;;15.25;4.20;;;;;;;;;;456210;29;1684;-71
2023/12/10 00:25:43;;;;;;;17.92;4.38;;;;;;;;;;456306;29;1649;-71
2023/12/10 00:25:58;;;;;;;18.10;4.25;;;;;;;;;;456565;29;1392;-70
2023/12/10 00:26:13;;;;;;;18.13;4.47;;;;;;;;;;456432;29;1525;-71
2023/12/10 00:26:29;;;;;;;19.63;4.47;;;;;;;;;;457157;28;1655;-71
2023/12/10 00:26:45;;;;;;;21.30;4.70;;;;;;;;;;457902;28;1532;-71
2023/12/10 00:27:00;;;;;;;20.23;4.60;;;;;;;;;;458541;28;1268;-71
2023/12/10 00:27:15;;;;;;;19.35;4.50;;;;;;;;;;461285;28;1315;-71
2023/12/10 00:27:31;;;;;;;17.93;4.23;;;;;;;;;;462763;28;1761;-70
2023/12/10 00:27:46;;;;;;;18.43;3.97;;;;;;;;;;459603;28;1444;-71
2023/12/10 00:28:01;;;;;;;19.15;4.18;;;;;;;;;;460980;28;1514;-71
2023/12/10 00:28:17;;;;;;;17.00;4.17;;;;;;;;;;461435;28;1504;-71
2023/12/10 00:28:32;;;;;;;20.52;4.65;;;;;;;;;;462092;28;1594;-71
2023/12/10 00:28:48;;;;;;;21.13;4.43;;;;;;;;;;464495;28;1440;-71
2023/12/10 00:29:03;;;;;;;18.40;4.03;;;;;;;;;;463667;28;1326;-71
2023/12/10 00:29:18;;;;;;;19.38;4.43;;;;;;;;;;464347;28;1393;-71
2023/12/10 00:29:34;;;;;;;19.80;4.47;;;;;;;;;;463788;28;1303;-71
2023/12/10 00:29:49;;;;;;;18.33;4.17;;;;;;;;;;464970;28;1436;-71
2023/12/10 00:30:05;;;;;;;15.45;3.95;;;;;;;;;;465087;28;1564;-71
2023/12/10 00:30:20;;;;;;;15.70;4.07;;;;;;;;;;462711;28;1301;-70
2023/12/10 00:30:37;;;;;;;20.97;4.50;;;;;;;;;;464490;28;1056;-71
2023/12/10 00:30:52;;;;;;;22.70;4.80;;;;;;;;;;465127;28;1566;-71
2023/12/10 00:31:08;;;;;;;19.58;4.68;;;;;;;;;;463529;28;1350;-71
2023/12/10 00:31:23;;;;;;;19.13;4.43;;;;;;;;;;463299;28;1369;-70
2023/12/10 00:31:42;;;;;;;19.60;4.70;;;;;;;;;;461539;28;1355;-71
2023/12/10 00:31:58;;;;;;;19.00;4.72;;;;;;;;;;462635;28;1298;-71
2023/12/10 00:32:13;;;;;;;15.70;4.13;;;;;;;;;;461140;28;1246;-70
2023/12/10 00:32:28;;;;;;;14.20;3.60;;;;;;;;;;461792;28;1373;-71
2023/12/10 00:32:44;;;;;;;15.77;3.70;;;;;;;;;;461409;28;1467;-71
2023/12/10 00:32:59;;;;;;;16.30;3.70;;;;;;;;;;462360;28;1613;-70
2023/12/10 00:33:15;;;;;;;16.07;3.87;;;;;;;;;;460005;28;1759;-70
2023/12/10 00:33:31;;;;;;;18.13;4.30;;;;;;;;;;460747;28;1586;-71
2023/12/10 00:33:46;;;;;;;17.83;4.03;;;;;;;;;;461461;28;1163;-70
2023/12/10 00:34:01;;;;;;;16.07;3.97;;;;;;;;;;456988;29;1647;-71
2023/12/10 00:34:17;;;;;;;16.50;4.33;;;;;;;;;;455578;29;2015;-70
2023/12/10 00:34:32;;;;;;;18.95;4.28;;;;;;;;;;455792;29;1354;-70
2023/12/10 00:34:48;;;;;;;22.67;4.30;;;;;;;;;;454927;29;1318;-71
2023/12/10 00:35:03;;;;;;;22.70;4.40;;;;;;;;;;458197;28;1400;-70
2023/12/10 00:35:19;;;;;;;20.37;4.17;;;;;;;;;;457443;29;1420;-71
2023/12/10 00:35:34;;;;;;;19.90;4.30;;;;;;;;;;457258;29;1342;-71
2023/12/10 00:35:50;;;;;;;20.43;4.47;;;;;;;;;;458482;28;1396;-71
2023/12/10 00:36:06;;;;;;;19.10;4.35;;;;;;;;;;459125;28;1350;-71
2023/12/10 00:36:21;;;;;;;17.67;4.10;;;;;;;;;;461310;28;1303;-71
2023/12/10 00:36:37;;;;;;;18.07;4.23;;;;;;;;;;461515;28;914;-71
2023/12/10 00:36:52;;;;;;;17.67;4.50;;;;;;;;;;462835;28;1430;-71
2023/12/10 00:37:07;;;;;;;21.97;5.57;;;;;;;;;;461927;28;1348;-71
2023/12/10 00:37:23;;;;;;;22.70;6.22;;;;;;;;;;462229;28;1299;-71
2023/12/10 00:37:38;;;;;;;21.13;5.60;;;;;;;;;;461121;28;1742;-71
2023/12/10 00:37:54;;;;;;;22.93;6.03;;;;;;;;;;458997;28;1427;-70
2023/12/10 00:38:09;;;;;;;23.42;6.28;;;;;;;;;;459035;28;1328;-71
2023/12/10 00:38:24;;;;;;;20.20;5.13;;;;;;;;;;460557;28;1431;-71
2023/12/10 00:38:40;;;;;;;19.43;4.50;;;;;;;;;;457567;29;1594;-71
2023/12/10 00:38:56;;;;;;;21.03;4.67;;;;;;;;;;457826;29;1381;-71
2023/12/10 00:39:12;;;;;;;19.55;4.53;;;;;;;;;;457199;29;1334;-71
2023/12/10 00:39:28;;;;;;;17.48;4.40;;;;;;;;;;458220;28;1362;-71
2023/12/10 00:39:44;;;;;;;18.45;4.25;;;;;;;;;;459758;28;1548;-71
2023/12/10 00:39:59;;;;;;;21.25;5.03;;;;;;;;;;460428;28;1398;-71
2023/12/10 00:40:15;;;;;;;22.30;6.00;;;;;;;;;;458918;28;1414;-71
2023/12/10 00:40:30;;;;;;;22.83;5.80;;;;;;;;;;460304;28;1478;-71
2023/12/10 00:40:46;;;;;;;21.52;5.25;;;;;;;;;;461426;28;1331;-71
2023/12/10 00:41:02;;;;;;;19.00;4.90;;;;;;;;;;461245;28;1224;-71
2023/12/10 00:41:17;;;;;;;17.30;4.32;;;;;;;;;;462722;28;1314;-70
2023/12/10 00:41:32;;;;;;;18.60;4.20;;;;;;;;;;462844;28;1492;-70
2023/12/10 00:41:48;;;;;;;20.23;4.40;;;;;;;;;;462665;28;1361;-71
2023/12/10 00:42:03;;;;;;;20.85;4.82;;;;;;;;;;463338;28;1442;-70
2023/12/10 00:42:19;;;;;;;21.20;5.00;;;;;;;;;;461522;28;1370;-70
2023/12/10 00:42:34;;;;;;;20.70;4.60;;;;;;;;;;461329;28;1513;-71
2023/12/10 00:42:51;;;;;;;18.60;4.30;;;;;;;;;;461464;28;1552;-71
2023/12/10 00:43:06;;;;;;;19.00;4.43;;;;;;;;;;463500;28;1326;-70
2023/12/10 00:43:21;;;;;;;20.77;4.57;;;;;;;;;;461282;28;1038;-71
2023/12/10 00:43:40;;;;;;;17.23;4.13;;;;;;;;;;461046;28;978;-71
2023/12/10 00:43:55;;;;;;;17.85;4.20;;;;;;;;;;462226;28;1281;-70
2023/12/10 00:44:10;;;;;;;19.50;4.40;;;;;;;;;;461429;28;1311;-70
2023/12/10 00:44:26;;;;;;;19.55;4.28;;;;;;;;;;462871;28;1435;-71
2023/12/10 00:44:42;;;;;;;20.23;4.43;;;;;;;;;;462404;28;919;-70
2023/12/10 00:44:58;;;;;;;20.60;4.68;;;;;;;;;;461573;28;1395;-71
2023/12/10 00:45:13;;;;;;;22.10;4.80;;;;;;;;;;463694;28;1153;-71
2023/12/10 00:45:28;;;;;;;20.23;4.30;;;;;;;;;;461182;28;1138;-71
2023/12/10 00:45:44;;;;;;;18.08;4.05;;;;;;;;;;461176;28;1024;-71
2023/12/10 00:45:59;;;;;;;18.03;4.30;;;;;;;;;;460649;28;1077;-70
2023/12/10 00:46:15;;;;;;;19.67;4.50;;;;;;;;;;460965;28;1128;-71
2023/12/10 00:46:30;;;;;;;20.53;4.80;;;;;;;;;;461164;28;1189;-70
2023/12/10 00:46:46;;;;;;;20.67;4.82;;;;;;;;;;458913;28;1022;-71
2023/12/10 00:47:01;;;;;;;19.40;4.60;;;;;;;;;;458658;28;1129;-70
2023/12/10 00:47:16;;;;;;;17.93;4.47;;;;;;;;;;458645;29;946;-71
2023/12/10 00:47:32;;;;;;;21.13;4.55;;;;;;;;;;458352;28;1437;-71
2023/12/10 00:47:47;;;;;;;21.77;4.63;;;;;;;;;;460002;28;1182;-71
2023/12/10 00:48:02;;;;;;;24.63;5.60;;;;;;;;;;459088;28;926;-71
2023/12/10 00:48:19;;;;;;;29.92;6.70;;;;;;;;;;458310;28;1078;-71
2023/12/10 00:48:36;;;;;;;27.85;6.43;;;;;;;;;;460987;28;1199;-70
2023/12/10 00:48:51;;;;;;;24.83;5.63;;;;;;;;;;459207;28;1251;-71
2023/12/10 00:49:08;;;;;;;20.60;4.88;;;;;;;;;;459674;28;1236;-71
2023/12/10 00:49:23;;;;;;;18.40;4.28;;;;;;;;;;459214;28;915;-71
2023/12/10 00:49:39;;;;;;;19.67;4.37;;;;;;;;;;459365;28;997;-70
2023/12/10 00:49:54;;;;;;;20.03;4.50;;;;;;;;;;459629;28;1154;-71
2023/12/10 00:50:09;;;;;;;20.25;4.55;;;;;;;;;;457224;29;1061;-71
2023/12/10 00:50:25;;;;;;;20.37;4.60;;;;;;;;;;457938;28;1242;-71
2023/12/10 00:50:40;;;;;;;21.10;4.70;;;;;;;;;;457570;28;1112;-71
2023/12/10 00:50:55;;;;;;;19.25;4.40;;;;;;;;;;458999;28;1335;-71
2023/12/10 00:51:18;;;;;;;18.03;4.37;;;;;;;;;;456789;29;1238;-71
2023/12/10 00:51:34;;;;;;;19.75;4.68;;;;;;;;;;458293;28;888;-71
2023/12/10 00:51:49;;;;;;;19.97;4.67;;;;;;;;;;458859;28;1269;-71
2023/12/10 00:52:05;;;;;;;19.42;4.55;;;;;;;;;;461993;28;1412;-71
2023/12/10 00:52:20;;;;;;;18.87;4.20;;;;;;;;;;460890;28;1237;-71
2023/12/10 00:52:37;;;;;;;19.88;4.40;;;;;;;;;;459156;29;1142;-71
2023/12/10 00:52:52;;;;;;;20.10;4.53;;;;;;;;;;460074;28;1109;-71
2023/12/10 00:53:07;;;;;;;22.30;4.57;;;;;;;;;;460034;28;1122;-71
2023/12/10 00:53:23;;;;;;;22.83;4.97;;;;;;;;;;458412;29;1288;-71
2023/12/10 00:53:38;;;;;;;21.60;5.07;;;;;;;;;;458881;28;869;-70
2023/12/10 00:53:54;;;;;;;19.43;4.53;;;;;;;;;;460511;28;1995;-70
2023/12/10 00:54:09;;;;;;;18.43;4.27;;;;;;;;;;461016;28;1944;-71
2023/12/10 00:54:25;;;;;;;19.02;4.28;;;;;;;;;;462643;28;1352;-71
2023/12/10 00:54:40;;;;;;;18.97;4.17;;;;;;;;;;465175;28;922;-70
2023/12/10 00:54:55;;;;;;;18.15;3.92;;;;;;;;;;464187;28;875;-71
2023/12/10 00:55:11;;;;;;;15.43;3.83;;;;;;;;;;463885;28;977;-71
2023/12/10 00:55:26;;;;;;;14.73;4.20;;;;;;;;;;463202;28;899;-71
2023/12/10 00:55:42;;;;;;;18.45;4.85;;;;;;;;;;463225;28;1218;-71
2023/12/10 00:55:57;;;;;;;19.93;4.93;;;;;;;;;;463057;28;1109;-71
2023/12/10 00:56:13;;;;;;;19.10;4.68;;;;;;;;;;461465;28;1371;-70
2023/12/10 00:56:28;;;;;;;20.53;4.80;;;;;;;;;;462816;28;1097;-71
2023/12/10 00:56:43;;;;;;;20.60;5.00;;;;;;;;;;460967;28;1331;-71
2023/12/10 00:57:00;;;;;;;20.93;5.10;;;;;;;;;;460804;28;1279;-71
2023/12/10 00:57:15;;;;;;;20.88;4.85;;;;;;;;;;461230;28;1210;-71
2023/12/10 00:57:30;;;;;;;22.75;5.15;;;;;;;;;;458657;28;1255;-71
2023/12/10 00:57:46;;;;;;;23.20;5.13;;;;;;;;;;457700;29;1240;-71
2023/12/10 00:58:02;;;;;;;20.20;4.60;;;;;;;;;;457587;29;1198;-71
2023/12/10 00:58:18;;;;;;;20.05;4.22;;;;;;;;;;459038;28;1044;-71
2023/12/10 00:58:33;;;;;;;19.43;4.23;;;;;;;;;;459539;28;1275;-71
2023/12/10 00:58:48;;;;;;;22.37;4.87;;;;;;;;;;459756;28;1003;-71
2023/12/10 00:59:04;;;;;;;23.37;5.20;;;;;;;;;;459661;28;1073;-71
2023/12/10 00:59:19;;;;;;;19.87;4.97;;;;;;;;;;461284;28;919;-70
2023/12/10 00:59:34;;;;;;;19.80;4.72;;;;;;;;;;463357;28;1662;-70
2023/12/10 00:59:50;;;;;;;19.37;4.73;;;;;;;;;;460752;28;1400;-71
2023/12/10 01:00:06;;;;;;;17.17;4.30;;;;;;;;;;461099;28;973;-71
2023/12/10 01:00:22;;;;;;;14.65;3.78;;;;;;;;;;462402;28;883;-71
2023/12/10 01:00:37;;;;;;;17.92;4.22;;;;;;;;;;464312;28;923;-70
2023/12/10 01:00:52;;;;;;;20.00;4.90;;;;;;;;;;461858;28;1205;-71
2023/12/10 01:01:08;;;;;;;21.57;5.10;;;;;;;;;;462019;28;962;-71
2023/12/10 01:01:23;;;;;;;22.70;5.10;;;;;;;;;;462100;28;922;-71
2023/12/10 01:01:39;;;;;;;20.93;4.70;;;;;;;;;;462163;28;914;-71
2023/12/10 01:01:54;;;;;;;19.47;4.47;;;;;;;;;;461265;28;1084;-71
2023/12/10 01:02:09;;;;;;;19.70;4.68;;;;;;;;;;463343;28;1212;-71
2023/12/10 01:02:25;;;;;;;20.50;4.70;;;;;;;;;;461124;28;1070;-71
2023/12/10 01:02:41;;;;;;;19.88;4.82;;;;;;;;;;461653;28;1089;-71
2023/12/10 01:02:56;;;;;;;20.00;4.70;;;;;;;;;;463055;28;1332;-71
2023/12/10 01:03:11;;;;;;;24.63;4.73;;;;;;;;;;461911;28;1328;-71
2023/12/10 01:03:27;;;;;;;24.33;5.10;;;;;;;;;;460720;28;1024;-71
2023/12/10 01:03:42;;;;;;;21.90;4.80;;;;;;;;;;460824;28;937;-71
2023/12/10 01:03:57;;;;;;;21.30;4.30;;;;;;;;;;461968;28;866;-71
2023/12/10 01:04:13;;;;;;;19.90;4.40;;;;;;;;;;459246;28;1342;-71
2023/12/10 01:04:28;;;;;;;21.17;4.65;;;;;;;;;;459378;28;949;-71
2023/12/10 01:04:43;;;;;;;22.30;4.80;;;;;;;;;;461818;28;1054;-71
2023/12/10 01:04:59;;;;;;;22.37;5.20;;;;;;;;;;463068;28;924;-71
2023/12/10 01:05:15;;;;;;;21.98;5.03;;;;;;;;;;462587;28;1275;-71
2023/12/10 01:05:30;;;;;;;21.75;4.70;;;;;;;;;;462071;28;1161;-71
2023/12/10 01:05:45;;;;;;;21.70;4.83;;;;;;;;;;461888;28;1015;-71
2023/12/10 01:06:03;;;;;;;20.70;4.77;;;;;;;;;;462235;28;1200;-71
2023/12/10 01:06:19;;;;;;;21.13;4.55;;;;;;;;;;464592;28;1244;-71
2023/12/10 01:06:34;;;;;;;22.05;4.53;;;;;;;;;;464008;28;874;-71
2023/12/10 01:06:50;;;;;;;20.57;4.40;;;;;;;;;;463615;28;921;-71
2023/12/10 01:07:07;;;;;;;20.05;4.60;;;;;;;;;;463340;28;1059;-71
2023/12/10 01:07:22;;;;;;;20.73;4.55;;;;;;;;;;462418;28;956;-71
2023/12/10 01:07:37;;;;;;;22.20;4.27;;;;;;;;;;462462;28;1208;-71
2023/12/10 01:07:53;;;;;;;22.87;4.30;;;;;;;;;;463261;28;1327;-71
2023/12/10 01:08:08;;;;;;;20.60;4.22;;;;;;;;;;461649;28;1225;-71
2023/12/10 01:08:23;;;;;;;20.80;4.50;;;;;;;;;;461476;28;1097;-71
2023/12/10 01:08:39;;;;;;;21.20;4.50;;;;;;;;;;461254;28;1031;-70
2023/12/10 01:08:54;;;;;;;20.25;4.47;;;;;;;;;;461913;28;984;-71
2023/12/10 01:09:09;;;;;;;21.00;4.80;;;;;;;;;;461470;28;1067;-71
2023/12/10 01:09:25;;;;;;;18.73;4.67;;;;;;;;;;460887;28;1141;-71
2023/12/10 01:09:40;;;;;;;19.58;4.47;;;;;;;;;;462005;28;938;-71
2023/12/10 01:09:55;;;;;;;21.80;4.70;;;;;;;;;;461848;28;1058;-70
2023/12/10 01:10:11;;;;;;;18.67;4.60;;;;;;;;;;463804;28;990;-71
2023/12/10 01:10:27;;;;;;;19.80;4.78;;;;;;;;;;465264;28;1116;-71
2023/12/10 01:10:42;;;;;;;21.13;4.75;;;;;;;;;;466307;28;895;-71
2023/12/10 01:10:58;;;;;;;20.43;4.30;;;;;;;;;;464234;28;1141;-71
2023/12/10 01:11:14;;;;;;;20.55;4.25;;;;;;;;;;463916;28;1277;-71
2023/12/10 01:11:30;;;;;;;20.27;4.60;;;;;;;;;;464086;28;1288;-71
2023/12/10 01:11:45;;;;;;;19.85;4.55;;;;;;;;;;463517;28;911;-71
2023/12/10 01:12:01;;;;;;;20.00;4.43;;;;;;;;;;462185;28;947;-71
2023/12/10 01:12:16;;;;;;;20.92;4.70;;;;;;;;;;464347;28;1475;-71
2023/12/10 01:12:37;;;;;;;21.90;4.67;;;;;;;;;;464512;28;1203;-71
2023/12/10 01:12:52;;;;;;;20.85;4.53;;;;;;;;;;465030;28;1090;-71
2023/12/10 01:13:08;;;;;;;18.83;4.63;;;;;;;;;;467004;28;1091;-70
2023/12/10 01:13:24;;;;;;;19.77;4.80;;;;;;;;;;465918;28;1131;-70
2023/12/10 01:13:40;;;;;;;20.73;4.93;;;;;;;;;;463273;28;1034;-70
2023/12/10 01:13:56;;;;;;;20.60;5.10;;;;;;;;;;463154;28;887;-71
2023/12/10 01:14:11;;;;;;;20.15;4.68;;;;;;;;;;462349;28;2049;-71
2023/12/10 01:14:26;;;;;;;20.17;4.43;;;;;;;;;;462995;28;1229;-71
2023/12/10 01:14:44;;;;;;;19.47;4.80;;;;;;;;;;461147;28;1178;-71
2023/12/10 01:14:59;;;;;;;20.85;4.82;;;;;;;;;;460789;28;1385;-70
2023/12/10 01:15:14;;;;;;;21.93;4.60;;;;;;;;;;458996;28;1051;-71
2023/12/10 01:15:30;;;;;;;20.50;4.47;;;;;;;;;;460810;28;928;-71
2023/12/10 01:15:45;;;;;;;20.30;4.47;;;;;;;;;;462437;28;1032;-71
2023/12/10 01:16:00;;;;;;;20.50;4.33;;;;;;;;;;462370;28;1195;-70
2023/12/10 01:16:16;;;;;;;22.73;4.50;;;;;;;;;;462540;28;1102;-70
2023/12/10 01:16:32;;;;;;;21.43;4.57;;;;;;;;;;462683;28;1306;-71
2023/12/10 01:16:48;;;;;;;19.17;4.40;;;;;;;;;;463329;28;1294;-71
2023/12/10 01:17:04;;;;;;;20.35;4.50;;;;;;;;;;463666;28;918;-70
2023/12/10 01:17:19;;;;;;;20.63;4.63;;;;;;;;;;461020;28;1150;-70
2023/12/10 01:17:34;;;;;;;22.20;4.70;;;;;;;;;;461009;28;887;-71
2023/12/10 01:17:49;;;;;;;21.37;4.63;;;;;;;;;;462370;28;1116;-71
2023/12/10 01:18:05;;;;;;;22.48;4.57;;;;;;;;;;460679;28;1194;-71
2023/12/10 01:18:23;;;;;;;22.03;4.43;;;;;;;;;;463483;28;1054;-71
2023/12/10 01:18:39;;;;;;;23.30;4.68;;;;;;;;;;462937;28;1091;-70
2023/12/10 01:18:54;;;;;;;21.97;4.63;;;;;;;;;;462796;28;1181;-71
2023/12/10 01:19:09;;;;;;;18.97;4.60;;;;;;;;;;461820;28;1035;-70
2023/12/10 01:19:26;;;;;;;21.73;4.70;;;;;;;;;;462742;28;1123;-71
2023/12/10 01:19:41;;;;;;;23.85;4.88;;;;;;;;;;462310;28;883;-72
2023/12/10 01:19:59;;;;;;;22.38;4.82;;;;;;;;;;459749;28;1041;-70
2023/12/10 01:20:16;;;;;;;17.35;4.13;;;;;;;;;;461137;28;1229;-70
2023/12/10 01:20:33;;;;;;;14.85;3.45;;;;;;;;;;462316;28;964;-71
2023/12/10 01:20:48;;;;;;;14.45;3.20;;;;;;;;;;462540;28;1423;-70
2023/12/10 01:21:04;;;;;;;16.13;3.57;;;;;;;;;;462768;28;1004;-71
2023/12/10 01:21:20;;;;;;;18.02;4.13;;;;;;;;;;462906;28;1176;-70
2023/12/10 01:21:35;;;;;;;16.73;3.97;;;;;;;;;;462607;28;1030;-69
2023/12/10 01:21:51;;;;;;;14.43;3.60;;;;;;;;;;464186;28;1124;-70
2023/12/10 01:22:06;;;;;;;14.03;3.17;;;;;;;;;;463639;28;1464;-70
2023/12/10 01:22:21;;;;;;;12.83;2.60;;;;;;;;;;462078;28;1168;-70
2023/12/10 01:22:37;;;;;;;10.07;2.42;;;;;;;;;;463026;28;1197;-70
2023/12/10 01:22:52;;;;;;;11.10;2.40;;;;;;;;;;463250;28;1109;-70
2023/12/10 01:23:08;;;;;;;12.40;2.67;;;;;;;;;;462143;28;1090;-69
2023/12/10 01:23:23;;;;;;;10.23;2.60;;;;;;;;;;461054;28;1113;-69
2023/12/10 01:23:39;;;;;;;9.45;2.40;;;;;;;;;;459244;28;1119;-71
2023/12/10 01:23:54;;;;;;;10.97;2.50;;;;;;;;;;459188;28;912;-69
2023/12/10 01:24:15;;;;;;;10.65;2.60;;;;;;;;;;461544;28;1137;-69
2023/12/10 01:24:31;;;;;;;10.15;2.42;;;;;;;;;;462302;28;1117;-70
2023/12/10 01:24:46;;;;;;;10.37;2.30;;;;;;;;;;463819;28;1023;-69
2023/12/10 01:25:02;;;;;;;10.23;2.20;;;;;;;;;;464596;28;985;-70
2023/12/10 01:25:17;;;;;;;10.23;2.17;;;;;;;;;;464587;28;918;-70
2023/12/10 01:25:34;;;;;;;9.27;2.03;;;;;;;;;;463214;28;1138;-70
2023/12/10 01:25:50;;;;;;;8.82;1.88;;;;;;;;;;465358;28;1517;-70
2023/12/10 01:26:06;;;;;;;8.80;2.03;;;;;;;;;;464376;28;1592;-69
2023/12/10 01:26:22;;;;;;;8.85;2.10;;;;;;;;;;464249;28;1337;-69
2023/12/10 01:26:37;;;;;;;8.52;2.03;;;;;;;;;;462401;28;1217;-70
2023/12/10 01:26:53;;;;;;;8.33;2.03;;;;;;;;;;462057;28;996;-70
2023/12/10 01:27:09;;;;;;;8.80;2.07;;;;;;;;;;462212;28;1124;-70
2023/12/10 01:27:24;;;;;;;7.90;1.88;;;;;;;;;;462800;28;1399;-69
2023/12/10 01:27:39;;;;;;;6.55;1.60;;;;;;;;;;462119;28;1086;-69
2023/12/10 01:27:55;;;;;;;8.40;1.80;;;;;;;;;;461598;28;1226;-69
2023/12/10 01:28:12;;;;;;;8.75;1.90;;;;;;;;;;460988;28;1035;-70
2023/12/10 01:28:27;;;;;;;7.25;1.63;;;;;;;;;;461645;28;1408;-68
2023/12/10 01:28:43;;;;;;;7.70;1.60;;;;;;;;;;461274;28;1358;-69
2023/12/10 01:28:58;;;;;;;8.03;1.60;;;;;;;;;;461694;28;1265;-68
2023/12/10 01:29:15;;;;;;;9.20;1.98;;;;;;;;;;462819;28;1028;-70
2023/12/10 01:29:31;;;;;;;9.45;2.08;;;;;;;;;;461969;28;1025;-70
2023/12/10 01:29:46;;;;;;;9.10;1.87;;;;;;;;;;460974;28;1538;-68
2023/12/10 01:30:02;;;;;;;8.32;1.80;;;;;;;;;;462429;28;1090;-67
2023/12/10 01:30:23;;;;;;;8.50;2.00;;;;;;;;;;462447;28;1058;-69
2023/12/10 01:30:38;;;;;;;9.63;2.35;;;;;;;;;;462790;28;1212;-69
2023/12/10 01:30:54;;;;;;;10.57;2.57;;;;;;;;;;464175;28;1102;-69
2023/12/10 01:31:09;;;;;;;9.47;2.30;;;;;;;;;;464466;28;1115;-69
2023/12/10 01:31:26;;;;;;;7.75;2.00;;;;;;;;;;463893;28;1175;-70
2023/12/10 01:31:41;;;;;;;9.48;2.10;;;;;;;;;;463890;28;973;-70
2023/12/10 01:31:57;;;;;;;9.63;2.30;;;;;;;;;;461511;28;1106;-70
2023/12/10 01:32:12;;;;;;;9.97;2.50;;;;;;;;;;461578;28;1165;-70
2023/12/10 01:32:27;;;;;;;11.93;2.47;;;;;;;;;;461826;28;927;-69
2023/12/10 01:32:43;;;;;;;12.37;2.33;;;;;;;;;;462347;28;925;-70
2023/12/10 01:32:58;;;;;;;11.02;2.20;;;;;;;;;;461070;28;1050;-71
2023/12/10 01:33:14;;;;;;;9.73;2.20;;;;;;;;;;462524;28;974;-69
2023/12/10 01:33:29;;;;;;;9.23;2.10;;;;;;;;;;461817;28;1223;-70
2023/12/10 01:33:44;;;;;;;9.23;2.00;;;;;;;;;;461272;28;1231;-70
2023/12/10 01:34:00;;;;;;;8.77;1.90;;;;;;;;;;462180;28;1050;-70
2023/12/10 01:34:15;;;;;;;7.37;1.73;;;;;;;;;;462367;28;1958;-70
2023/12/10 01:34:30;;;;;;;6.73;1.80;;;;;;;;;;464838;28;1112;-70
2023/12/10 01:34:46;;;;;;;7.53;1.90;;;;;;;;;;460239;28;1226;-70
2023/12/10 01:35:01;;;;;;;9.57;1.90;;;;;;;;;;460014;28;1118;-70
2023/12/10 01:35:16;;;;;;;8.43;1.90;;;;;;;;;;458896;28;1245;-70
2023/12/10 01:35:32;;;;;;;7.57;1.90;;;;;;;;;;460485;28;1201;-69